Airfield :
LOGIN :

Register | Disclaimer

   EN    FR    IT 

 










Legend :    VFR   Marginal VFR   IFR   Intensive IFR   Very Intensive IFR
Visi :
Ceiling :
>= 8 km
>= 3000ft
5 to 8 km
1000 to 3000 ft
1500m to 5 km
500 to 1000 ft
800 to 1500m
200 to 500 ft
< 800m
< 200 ft
Symbols :   Thunderstorms  Fog  Heavy snow  Heavy precipitations  Wind > 20 kt
SIGMETs :     Misc.  Thunderstorms  Icing  Turbulence  Mountain Waves  Volcanic Ashes






- Airport Elevation : 252 ft
- IATA code : BDU


ENDU - Bardufoss

CURRENT METAR :
  • 192120Z 27005KT 9999 FEW014 SCT030 BKN040 16/14 Q1017 RMK WIND 1100FT 31008KT WIND 2200FT 29009KT

EXPIRED METARs :
  • 192050Z 26004KT 230V290 9999 FEW020 SCT035 BKN050 17/14 Q1016 RMK WIND 1100FT 30008KT WIND 2200FT 28007KT
  • 192020Z 27008KT 9999 FEW020 SCT035 BKN055 17/14 Q1016 RMK WIND 1100FT 30009KT WIND 2200FT 28007KT
  • 191950Z 27004KT 9999 FEW025 SCT035 BKN095 17/14 Q1016 RMK WIND 1100FT 30007KT WIND 2200FT 29006KT
  • 191920Z 27004KT 9999 FEW025 SCT045 BKN095 17/14 Q1016 RMK WIND 1100FT 30008KT WIND 2200FT 28007KT
  • 191850Z 26004KT 220V290 9999 FEW010 SCT040 BKN090 18/15 Q1016 RMK WIND 1100FT 29007KT WIND 2200FT 28006KT
  • 191820Z 27003KT 9999 FEW010 SCT040 BKN090 18/15 Q1016 RMK WIND 1100FT 30005KT WIND 2200FT 28007KT
  • 191750Z 25004KT 9999 FEW010 SCT040TCU BKN070 19/15 Q1016 RMK WIND 1100FT 29005KT WIND 2200FT 29008KT
  • 191720Z 24003KT 200V260 9999 FEW010 SCT040 BKN070 19/15 Q1016 RMK WIND 1100FT 30008KT WIND 2200FT 28009KT
  • 191650Z 25005KT 220V280 9999 FEW010 BKN040 19/16 Q1016 NOSIG RMK WIND 1100FT 31009KT WIND 2200FT 30011KT

TAF TAF ENDU
Valid from the 19 at 18:00 until the 20 at 18:00 UTC


191700Z 1918/2018 28005KT 9999 FEW005 BKN025
TEMPO 1922/2006 BKN014



MET'MAP, your aeronautical weather chart ! - Copyright ORBIFLY December 2007 - Disclaimer

ORBIFLY MET'MAP TEAM :

Programming & Development : Alexandra Zaïnal
Original concept : Baudouin d'Aumeries
Technical & hardware support : Manuel Goepfert
Assistance : Marc-Olivier Méhu




SOURCES & CREDITS :

   NOAA